createdAt,value
2018-11-13T00:00:35.875Z,0
2018-11-13T00:01:50.027Z,0
2018-11-13T00:03:05.230Z,0
2018-11-13T00:04:19.678Z,0
2018-11-13T00:05:34.278Z,0
2018-11-13T00:06:49.600Z,0
2018-11-13T00:08:04.706Z,0
2018-11-13T00:09:19.846Z,0
2018-11-13T00:10:35.013Z,0
2018-11-13T00:11:49.885Z,0
2018-11-13T00:13:04.633Z,0
2018-11-13T00:14:18.963Z,0
2018-11-13T00:15:33.849Z,0
2018-11-13T00:16:48.454Z,0
2018-11-13T00:18:02.803Z,0
2018-11-13T00:19:17.021Z,0
2018-11-13T00:20:31.914Z,0
2018-11-13T00:21:46.831Z,0
2018-11-13T00:23:01.628Z,0
2018-11-13T00:24:15.767Z,0
2018-11-13T00:25:30.851Z,0
2018-11-13T00:26:45.740Z,0
2018-11-13T00:28:00.907Z,0
2018-11-13T00:29:16.124Z,0
2018-11-13T00:30:31.976Z,0
2018-11-13T00:31:46.515Z,0
2018-11-13T00:33:01.090Z,0
2018-11-13T00:34:16.108Z,0
2018-11-13T00:35:30.984Z,0
2018-11-13T00:36:45.602Z,0
2018-11-13T00:38:00.740Z,0
2018-11-13T00:39:14.996Z,0
2018-11-13T00:40:31.138Z,0
2018-11-13T00:41:46.095Z,0
2018-11-13T00:43:01.176Z,0
2018-11-13T00:44:16.683Z,0
2018-11-13T00:45:32.055Z,0
2018-11-13T00:46:47.412Z,0
2018-11-13T00:48:01.852Z,0
2018-11-13T00:49:16.455Z,0
2018-11-13T00:50:30.852Z,0
2018-11-13T00:51:46.126Z,0
2018-11-13T00:53:01.244Z,0
2018-11-13T00:54:15.880Z,0
2018-11-13T00:55:30.430Z,0
2018-11-13T00:56:45.110Z,0
2018-11-13T00:58:00.286Z,0
2018-11-13T00:59:14.960Z,0
2018-11-13T01:00:29.714Z,0
2018-11-13T01:01:44.306Z,0
2018-11-13T01:02:58.744Z,0
2018-11-13T01:04:13.411Z,0
2018-11-13T01:05:28.822Z,0
2018-11-13T01:06:43.844Z,0
2018-11-13T01:07:59.187Z,0
2018-11-13T01:09:14.056Z,0
2018-11-13T01:10:29.068Z,0
2018-11-13T01:11:43.774Z,0
2018-11-13T01:12:58.682Z,0
2018-11-13T01:14:13.680Z,0
2018-11-13T01:15:27.907Z,0
2018-11-13T01:16:42.523Z,0
2018-11-13T01:17:57.707Z,0
2018-11-13T01:19:12.489Z,0
2018-11-13T01:20:27.356Z,0
2018-11-13T01:21:41.697Z,0
2018-11-13T01:22:56.859Z,0
2018-11-13T01:24:12.522Z,0
2018-11-13T01:25:27.181Z,0
2018-11-13T01:26:41.263Z,0
2018-11-13T01:27:55.896Z,0
2018-11-13T01:29:09.974Z,0
2018-11-13T01:30:25.267Z,0
2018-11-13T01:31:45.049Z,0
2018-11-13T01:32:59.737Z,0
2018-11-13T01:34:14.147Z,0
2018-11-13T01:35:28.986Z,0
2018-11-13T01:36:43.775Z,0
2018-11-13T01:37:58.101Z,0
2018-11-13T01:39:12.505Z,0
2018-11-13T01:40:27.125Z,0
2018-11-13T01:41:41.159Z,0
2018-11-13T01:42:56.117Z,0
2018-11-13T01:44:09.961Z,0
2018-11-13T01:45:24.865Z,0
2018-11-13T01:46:39.743Z,0
2018-11-13T01:47:54.472Z,0
2018-11-13T01:49:09.456Z,0
2018-11-13T01:50:23.813Z,0
2018-11-13T01:51:38.853Z,0
2018-11-13T01:52:53.227Z,0
2018-11-13T01:54:07.724Z,0
2018-11-13T01:55:22.406Z,0
2018-11-13T01:56:37.815Z,0
2018-11-13T01:57:52.183Z,0
2018-11-13T01:59:06.268Z,0
2018-11-13T02:00:21.041Z,0
2018-11-13T02:01:35.471Z,0
2018-11-13T02:02:50.193Z,0
2018-11-13T02:04:04.554Z,0
2018-11-13T02:05:44.841Z,0
2018-11-13T02:06:59.715Z,0
2018-11-13T02:08:14.548Z,0
2018-11-13T02:09:28.861Z,0
2018-11-13T02:10:43.700Z,0
2018-11-13T02:11:58.189Z,0
2018-11-13T02:13:13.306Z,0
2018-11-13T02:14:27.640Z,0
2018-11-13T02:15:42.534Z,0
2018-11-13T02:16:57.509Z,0
2018-11-13T02:18:12.112Z,0
2018-11-13T02:19:27.130Z,0
2018-11-13T02:20:41.466Z,0
2018-11-13T02:21:56.520Z,0
2018-11-13T02:23:11.119Z,0
2018-11-13T02:24:25.435Z,0
2018-11-13T02:25:43.377Z,0
2018-11-13T02:26:58.112Z,0
2018-11-13T02:28:12.780Z,0
2018-11-13T02:29:26.893Z,0
2018-11-13T02:30:41.257Z,0
2018-11-13T02:31:56.952Z,0
2018-11-13T02:33:11.570Z,0
2018-11-13T02:34:25.665Z,0
2018-11-13T02:35:41.038Z,0
2018-11-13T02:36:55.047Z,0
2018-11-13T02:38:10.202Z,0
2018-11-13T02:39:25.339Z,0
2018-11-13T02:40:39.696Z,0
2018-11-13T02:41:54.288Z,0
2018-11-13T02:43:08.290Z,0
2018-11-13T02:44:23.203Z,0
2018-11-13T02:45:38.046Z,0
2018-11-13T02:46:53.715Z,0
2018-11-13T02:48:08.362Z,0
2018-11-13T02:49:22.940Z,0
2018-11-13T02:50:38.118Z,0
2018-11-13T02:51:53.211Z,0
2018-11-13T02:53:08.165Z,0
2018-11-13T02:54:22.774Z,0
2018-11-13T02:55:37.632Z,0
2018-11-13T02:56:53.937Z,0
2018-11-13T02:58:08.349Z,0
2018-11-13T02:59:22.393Z,0
2018-11-13T03:00:37.000Z,0
2018-11-13T03:01:51.848Z,0
2018-11-13T03:03:07.031Z,0
2018-11-13T03:04:21.612Z,0
2018-11-13T03:05:35.967Z,0
2018-11-13T03:06:50.577Z,0
2018-11-13T03:08:04.909Z,0
2018-11-13T03:09:20.141Z,0
2018-11-13T03:10:35.290Z,0
2018-11-13T03:11:50.173Z,0
2018-11-13T03:13:04.393Z,0
2018-11-13T03:14:18.870Z,0
2018-11-13T03:15:33.284Z,0
2018-11-13T03:16:47.850Z,0
2018-11-13T03:18:02.432Z,0
2018-11-13T03:19:17.018Z,0
2018-11-13T03:20:31.347Z,0
2018-11-13T03:21:46.503Z,0
2018-11-13T03:23:01.106Z,0
2018-11-13T03:24:16.077Z,0
2018-11-13T03:25:30.900Z,0
2018-11-13T03:26:45.493Z,0
2018-11-13T03:28:00.851Z,0
2018-11-13T03:29:15.560Z,0
2018-11-13T03:30:29.903Z,0
2018-11-13T03:31:44.276Z,0
2018-11-13T03:32:58.364Z,0
2018-11-13T03:34:13.227Z,0
2018-11-13T03:35:27.830Z,0
2018-11-13T03:36:42.415Z,0
2018-11-13T03:37:56.999Z,0
2018-11-13T03:39:13.406Z,0
2018-11-13T03:40:28.714Z,0
2018-11-13T03:41:42.777Z,0
2018-11-13T03:42:56.826Z,0
2018-11-13T03:44:11.778Z,0
2018-11-13T03:45:25.824Z,0
2018-11-13T03:46:41.063Z,0
2018-11-13T03:47:55.923Z,0
2018-11-13T03:49:10.566Z,0
2018-11-13T03:50:24.917Z,0
2018-11-13T03:51:39.001Z,0
2018-11-13T03:52:54.478Z,0
2018-11-13T03:54:08.532Z,0
2018-11-13T03:55:23.106Z,0
2018-11-13T03:56:37.958Z,0
2018-11-13T03:57:52.805Z,0
2018-11-13T03:59:08.208Z,0
2018-11-13T04:00:22.873Z,0
2018-11-13T04:01:37.465Z,0
2018-11-13T04:02:52.063Z,0
2018-11-13T04:04:06.688Z,0
2018-11-13T04:05:21.424Z,0
2018-11-13T04:06:35.732Z,0
2018-11-13T04:07:50.347Z,0
2018-11-13T04:09:04.944Z,0
2018-11-13T04:10:19.737Z,0
2018-11-13T04:11:34.442Z,0
2018-11-13T04:13:02.772Z,0
2018-11-13T04:14:17.361Z,0
2018-11-13T04:15:32.110Z,0
2018-11-13T04:16:46.696Z,0
2018-11-13T04:18:01.373Z,0
2018-11-13T04:19:15.966Z,0
2018-11-13T04:20:30.904Z,0
2018-11-13T04:21:46.121Z,0
2018-11-13T04:23:01.114Z,0
2018-11-13T04:24:16.075Z,0
2018-11-13T04:25:31.135Z,0
2018-11-13T04:26:45.510Z,0
2018-11-13T04:27:59.684Z,0
2018-11-13T04:29:33.035Z,0
2018-11-13T04:30:48.318Z,0
2018-11-13T04:32:02.450Z,0
2018-11-13T04:33:16.813Z,0
2018-11-13T04:34:31.381Z,0
2018-11-13T04:35:46.649Z,0
2018-11-13T04:37:01.003Z,0
2018-11-13T04:38:15.589Z,0
2018-11-13T04:39:30.215Z,0
2018-11-13T04:40:45.177Z,0
2018-11-13T04:42:00.618Z,0
2018-11-13T04:43:15.234Z,0
2018-11-13T04:44:29.827Z,0
2018-11-13T04:45:44.946Z,0
2018-11-13T04:46:59.822Z,0
2018-11-13T04:48:15.362Z,0
2018-11-13T04:49:29.678Z,0
2018-11-13T04:50:43.596Z,0
2018-11-13T04:51:58.478Z,0
2018-11-13T04:53:13.055Z,0
2018-11-13T04:54:27.968Z,0
2018-11-13T04:55:42.820Z,0
2018-11-13T04:56:57.245Z,0
2018-11-13T04:58:12.129Z,0
2018-11-13T04:59:26.718Z,0
2018-11-13T05:00:41.608Z,0
2018-11-13T05:01:56.531Z,0
2018-11-13T05:03:11.086Z,0
2018-11-13T05:04:25.440Z,0
2018-11-13T05:05:44.885Z,0
2018-11-13T05:07:00.598Z,0
2018-11-13T05:08:14.934Z,0
2018-11-13T05:09:29.265Z,0
2018-11-13T05:10:44.129Z,0
2018-11-13T05:11:58.664Z,0
2018-11-13T05:13:13.620Z,0
2018-11-13T05:14:28.471Z,0
2018-11-13T05:15:43.054Z,0
2018-11-13T05:16:57.807Z,0
2018-11-13T05:18:13.126Z,0
2018-11-13T05:19:26.979Z,0
2018-11-13T05:20:41.887Z,0
2018-11-13T05:21:56.844Z,0
2018-11-13T05:23:12.315Z,0
2018-11-13T05:24:27.590Z,0
2018-11-13T05:25:41.959Z,0
2018-11-13T05:26:56.534Z,0
2018-11-13T05:28:10.626Z,0
2018-11-13T05:29:24.960Z,0
2018-11-13T05:30:39.315Z,0
2018-11-13T05:31:53.988Z,0
2018-11-13T05:33:10.104Z,0
2018-11-13T05:34:25.755Z,0
2018-11-13T05:35:42.329Z,0
2018-11-13T05:36:57.899Z,0
2018-11-13T05:38:13.893Z,0
2018-11-13T05:39:28.191Z,0
2018-11-13T05:40:43.461Z,0
2018-11-13T05:41:59.045Z,0
2018-11-13T05:43:13.909Z,0
2018-11-13T05:44:30.375Z,0
2018-11-13T05:45:46.339Z,0
2018-11-13T05:47:02.105Z,0
2018-11-13T05:48:16.909Z,0
2018-11-13T05:49:30.709Z,0
2018-11-13T05:50:46.036Z,0
2018-11-13T05:52:00.488Z,0
2018-11-13T05:53:14.824Z,0
2018-11-13T05:54:29.152Z,0
2018-11-13T05:55:43.450Z,0
2018-11-13T05:56:58.535Z,0
2018-11-13T05:58:12.892Z,0
2018-11-13T05:59:27.754Z,0
2018-11-13T06:00:41.928Z,0
2018-11-13T06:01:56.369Z,0
2018-11-13T06:03:11.790Z,0
2018-11-13T06:04:25.838Z,0
2018-11-13T06:05:40.425Z,0
2018-11-13T06:06:55.002Z,0
2018-11-13T06:08:09.863Z,0
2018-11-13T06:09:24.787Z,0
2018-11-13T06:10:39.504Z,0
2018-11-13T06:11:54.249Z,0
2018-11-13T06:13:08.508Z,0
2018-11-13T06:14:23.046Z,0
2018-11-13T06:15:37.442Z,0
2018-11-13T06:16:51.835Z,0
2018-11-13T06:18:06.259Z,0
2018-11-13T06:19:20.225Z,4
2018-11-13T06:20:34.730Z,4
2018-11-13T06:21:50.659Z,4
2018-11-13T06:23:20.683Z,0
2018-11-13T06:24:34.731Z,4
2018-11-13T06:25:50.254Z,4
2018-11-13T06:27:20.120Z,8
2018-11-13T06:28:35.762Z,8
2018-11-13T06:29:51.439Z,8
2018-11-13T06:31:05.751Z,12
2018-11-13T06:32:21.602Z,12
2018-11-13T06:33:37.412Z,12
2018-11-13T06:34:52.523Z,12
2018-11-13T06:36:06.607Z,16
2018-11-13T06:37:36.431Z,16
2018-11-13T06:38:51.373Z,20
2018-11-13T06:40:06.526Z,16
2018-11-13T06:41:20.874Z,20
2018-11-13T06:42:35.508Z,20
2018-11-13T06:43:50.176Z,24
2018-11-13T06:45:05.199Z,24
2018-11-13T06:46:19.817Z,28
2018-11-13T06:47:34.207Z,28
2018-11-13T06:48:48.884Z,32
2018-11-13T06:50:03.363Z,28
2018-11-13T06:51:18.069Z,32
2018-11-13T06:52:32.685Z,32
2018-11-13T06:53:46.502Z,36
2018-11-13T06:55:01.455Z,40
2018-11-13T06:56:16.837Z,44
2018-11-13T06:57:31.771Z,52
2018-11-13T06:58:46.442Z,64
2018-11-13T07:00:01.437Z,76
2018-11-13T07:01:16.078Z,84
2018-11-13T07:02:30.423Z,92
2018-11-13T07:03:45.820Z,96
2018-11-13T07:05:00.065Z,100
2018-11-13T07:06:14.537Z,104
2018-11-13T07:07:29.150Z,104
2018-11-13T07:08:44.000Z,104
2018-11-13T07:09:58.941Z,104
2018-11-13T07:11:13.739Z,108
2018-11-13T07:12:27.816Z,116
2018-11-13T07:13:42.421Z,112
2018-11-13T07:14:57.029Z,128
2018-11-13T07:16:11.918Z,136
2018-11-13T07:17:26.520Z,152
2018-11-13T07:18:41.637Z,144
2018-11-13T07:19:56.520Z,152
2018-11-13T07:21:11.236Z,128
2018-11-13T07:22:26.123Z,124
2018-11-13T07:23:40.743Z,108
2018-11-13T07:24:55.110Z,144
2018-11-13T07:26:10.449Z,100
2018-11-13T07:27:25.248Z,164
2018-11-13T07:28:40.524Z,128
2018-11-13T07:29:55.414Z,96
2018-11-13T07:31:10.069Z,136
2018-11-13T07:32:24.764Z,148
2018-11-13T07:33:39.936Z,180
2018-11-13T07:34:54.563Z,188
2018-11-13T07:36:09.038Z,240
2018-11-13T07:37:23.635Z,256
2018-11-13T07:38:37.988Z,260
2018-11-13T07:39:52.678Z,296
2018-11-13T07:41:07.986Z,320
2018-11-13T07:42:22.639Z,340
2018-11-13T07:43:36.486Z,384
2018-11-13T07:44:51.092Z,380
2018-11-13T07:46:05.232Z,376
2018-11-13T07:47:20.636Z,368
2018-11-13T07:48:34.568Z,368
2018-11-13T07:49:49.695Z,324
2018-11-13T07:51:04.328Z,296
2018-11-13T07:52:18.507Z,304
2018-11-13T07:53:33.640Z,300
2018-11-13T07:54:48.364Z,292
2018-11-13T07:56:02.988Z,264
2018-11-13T07:57:17.181Z,216
2018-11-13T07:58:32.618Z,180
2018-11-13T07:59:46.721Z,168
2018-11-13T08:01:01.655Z,172
2018-11-13T08:02:16.392Z,204
2018-11-13T08:03:31.596Z,264
2018-11-13T08:04:46.561Z,332
2018-11-13T08:06:02.117Z,264
2018-11-13T08:07:16.876Z,260
2018-11-13T08:08:31.655Z,272
2018-11-13T08:09:45.730Z,396
2018-11-13T08:11:00.627Z,504
2018-11-13T08:12:15.462Z,532
2018-11-13T08:13:30.047Z,612
2018-11-13T08:14:45.036Z,644
2018-11-13T08:15:59.934Z,640
2018-11-13T08:17:15.257Z,552
2018-11-13T08:18:30.686Z,552
2018-11-13T08:19:46.088Z,496
2018-11-13T08:21:01.129Z,460
2018-11-13T08:22:30.850Z,512
2018-11-13T08:23:46.034Z,536
2018-11-13T08:25:00.916Z,568
2018-11-13T08:26:15.379Z,560
2018-11-13T08:27:29.977Z,456
2018-11-13T08:28:45.141Z,420
2018-11-13T08:29:59.898Z,344
2018-11-13T08:31:14.769Z,316
2018-11-13T08:32:29.177Z,304
2018-11-13T08:33:43.947Z,364
2018-11-13T08:34:59.317Z,464
2018-11-13T08:36:14.901Z,548
2018-11-13T08:37:29.032Z,636
2018-11-13T08:38:43.905Z,672
2018-11-13T08:39:58.272Z,624
2018-11-13T08:41:12.955Z,584
2018-11-13T08:42:27.704Z,616
2018-11-13T08:43:42.168Z,696
2018-11-13T08:44:56.709Z,704
2018-11-13T08:46:11.572Z,716
2018-11-13T08:47:25.660Z,784
2018-11-13T08:48:40.547Z,720
2018-11-13T08:49:55.502Z,668
2018-11-13T08:51:09.863Z,744
2018-11-13T08:52:24.466Z,672
2018-11-13T08:53:39.090Z,588
2018-11-13T08:54:53.326Z,588
2018-11-13T08:56:07.962Z,628
2018-11-13T08:57:22.315Z,568
2018-11-13T08:58:37.337Z,520
2018-11-13T08:59:52.494Z,576
2018-11-13T09:01:07.139Z,624
2018-11-13T09:02:21.544Z,564
2018-11-13T09:03:36.160Z,560
2018-11-13T09:04:50.293Z,596
2018-11-13T09:06:05.263Z,676
2018-11-13T09:07:20.191Z,744
2018-11-13T09:08:34.807Z,748
2018-11-13T09:11:18.995Z,884
2018-11-13T09:12:34.345Z,788
2018-11-13T09:13:49.255Z,744
2018-11-13T09:15:02.821Z,664
2018-11-13T09:16:17.711Z,708
2018-11-13T09:17:32.617Z,976
2018-11-13T09:18:47.347Z,1212
2018-11-13T09:20:02.903Z,1296
2018-11-13T09:21:17.312Z,1068
2018-11-13T09:22:31.387Z,1000
2018-11-13T09:23:46.385Z,940
2018-11-13T09:25:01.524Z,980
2018-11-13T09:26:15.909Z,1068
2018-11-13T09:27:30.545Z,1224
2018-11-13T09:28:44.202Z,1344
2018-11-13T09:29:59.488Z,1436
2018-11-13T09:31:14.967Z,1540
2018-11-13T09:32:29.992Z,1352
2018-11-13T09:33:44.766Z,1392
2018-11-13T09:34:59.364Z,1364
2018-11-13T09:36:13.793Z,1116
2018-11-13T09:37:28.927Z,912
2018-11-13T09:38:44.481Z,952
2018-11-13T09:39:58.980Z,1000
2018-11-13T09:41:13.759Z,1028
2018-11-13T09:42:28.280Z,1448
2018-11-13T09:43:42.901Z,1504
2018-11-13T09:44:57.971Z,1484
2018-11-13T09:46:14.063Z,1784
2018-11-13T09:47:28.509Z,1468
2018-11-13T09:48:43.108Z,1392
2018-11-13T09:49:58.104Z,1348
2018-11-13T09:51:13.351Z,1744
2018-11-13T09:52:28.384Z,2140
2018-11-13T09:53:43.320Z,2028
2018-11-13T09:54:58.607Z,1580
2018-11-13T09:56:13.646Z,1404
2018-11-13T09:57:28.961Z,1324
2018-11-13T09:58:44.433Z,1732
2018-11-13T09:59:59.378Z,2104
2018-11-13T10:01:17.316Z,1652
2018-11-13T10:02:36.911Z,1920
2018-11-13T10:03:59.026Z,2300
2018-11-13T10:05:15.832Z,2332
2018-11-13T10:06:30.904Z,2092
2018-11-13T10:07:45.516Z,1876
2018-11-13T10:08:59.614Z,1920
2018-11-13T10:10:15.081Z,1832
2018-11-13T10:11:30.018Z,1644
2018-11-13T10:12:44.894Z,1868
2018-11-13T10:13:59.490Z,1900
2018-11-13T10:15:14.192Z,1832
2018-11-13T10:16:29.111Z,1888
2018-11-13T10:17:44.269Z,2020
2018-11-13T10:18:59.341Z,1480
2018-11-13T10:20:14.595Z,1264
2018-11-13T10:21:29.218Z,1624
2018-11-13T10:22:44.084Z,2324
2018-11-13T10:23:58.700Z,2400
2018-11-13T10:25:13.343Z,1904
2018-11-13T10:26:28.189Z,1424
2018-11-13T10:27:42.510Z,1376
2018-11-13T10:28:57.821Z,1600
2018-11-13T10:30:11.905Z,1872
2018-11-13T10:31:26.196Z,2020
2018-11-13T10:32:40.545Z,2128
2018-11-13T10:33:55.179Z,1908
2018-11-13T10:35:09.308Z,1764
2018-11-13T10:36:24.226Z,1868
2018-11-13T10:37:38.875Z,2028
2018-11-13T10:38:52.717Z,2260
2018-11-13T10:40:07.473Z,2300
2018-11-13T10:41:22.734Z,2272
2018-11-13T10:42:37.139Z,2180
2018-11-13T10:43:52.081Z,2056
2018-11-13T10:45:06.459Z,2216
2018-11-13T10:46:21.172Z,2380
2018-11-13T10:47:35.320Z,2464
2018-11-13T10:48:49.730Z,2440
2018-11-13T10:50:05.122Z,2520
2018-11-13T10:51:19.564Z,2444
2018-11-13T10:52:33.712Z,2420
2018-11-13T10:53:48.376Z,2428
2018-11-13T10:55:02.458Z,2528
2018-11-13T10:56:17.568Z,2584
2018-11-13T10:57:31.784Z,2604
2018-11-13T10:58:46.916Z,2620
2018-11-13T11:00:01.834Z,2464
2018-11-13T11:01:15.633Z,2108
2018-11-13T11:02:31.046Z,2228
2018-11-13T11:03:45.441Z,2176
2018-11-13T11:05:00.033Z,1844
2018-11-13T11:06:14.452Z,1820
2018-11-13T11:07:29.130Z,1644
2018-11-13T11:08:43.651Z,1640
2018-11-13T11:09:58.345Z,1388
2018-11-13T11:11:13.031Z,1512
2018-11-13T11:12:27.966Z,1456
2018-11-13T11:13:43.987Z,1332
2018-11-13T11:14:58.444Z,1364
2018-11-13T11:16:13.005Z,1476
2018-11-13T11:17:27.668Z,1652
2018-11-13T11:18:42.706Z,1728
2018-11-13T11:19:57.554Z,2776
2018-11-13T11:21:12.173Z,2552
2018-11-13T11:22:26.788Z,2900
2018-11-13T11:23:42.734Z,2776
2018-11-13T11:24:58.321Z,3040
2018-11-13T11:26:13.679Z,2768
2018-11-13T11:27:28.576Z,2544
2018-11-13T11:28:43.272Z,2108
2018-11-13T11:29:57.891Z,1640
2018-11-13T11:31:13.495Z,1500
2018-11-13T11:32:28.415Z,1336
2018-11-13T11:33:42.865Z,1324
2018-11-13T11:34:57.714Z,1484
2018-11-13T11:36:12.584Z,1332
2018-11-13T11:37:27.727Z,1480
2018-11-13T11:38:42.743Z,1492
2018-11-13T11:39:58.120Z,1568
2018-11-13T11:41:12.741Z,1728
2018-11-13T11:42:27.354Z,2056
2018-11-13T11:43:42.345Z,1868
2018-11-13T11:44:57.225Z,1688
2018-11-13T11:46:11.582Z,1436
2018-11-13T11:47:26.214Z,1444
2018-11-13T11:48:41.506Z,1924
2018-11-13T11:49:56.189Z,1816
2018-11-13T11:51:10.850Z,2308
2018-11-13T11:52:24.382Z,1836
2018-11-13T11:53:38.808Z,1944
2018-11-13T11:54:53.276Z,2776
2018-11-13T11:56:07.759Z,2564
2018-11-13T11:57:22.639Z,2072
2018-11-13T11:58:37.469Z,2076
2018-11-13T11:59:52.689Z,2200
2018-11-13T12:01:07.569Z,2020
2018-11-13T12:02:22.301Z,1772
2018-11-13T12:03:37.367Z,1780
2018-11-13T12:04:52.031Z,1736
2018-11-13T12:06:06.397Z,1800
2018-11-13T12:07:21.006Z,2044
2018-11-13T12:08:35.936Z,1744
2018-11-13T12:09:50.819Z,1688
2018-11-13T12:11:04.898Z,1704
2018-11-13T12:12:19.667Z,1764
2018-11-13T12:13:34.442Z,1732
2018-11-13T12:14:49.411Z,1836
2018-11-13T12:16:04.046Z,1716
2018-11-13T12:17:33.819Z,1752
2018-11-13T12:18:48.984Z,1736
2018-11-13T12:20:04.718Z,1612
2018-11-13T12:21:19.351Z,1768
2018-11-13T12:22:33.815Z,1716
2018-11-13T12:23:48.598Z,1724
2018-11-13T12:25:03.586Z,1500
2018-11-13T12:26:18.036Z,1616
2018-11-13T12:27:32.415Z,1608
2018-11-13T12:28:47.173Z,1568
2018-11-13T12:30:01.761Z,1896
2018-11-13T12:31:16.661Z,1804
2018-11-13T12:32:31.907Z,1628
2018-11-13T12:33:46.391Z,1572
2018-11-13T12:35:01.024Z,1544
2018-11-13T12:36:15.483Z,1540
2018-11-13T12:37:30.261Z,1524
2018-11-13T12:38:45.557Z,1516
2018-11-13T12:40:00.160Z,1512
2018-11-13T12:41:14.495Z,1504
2018-11-13T12:42:29.126Z,1508
2018-11-13T12:43:43.617Z,1500
2018-11-13T12:44:58.566Z,1508
2018-11-13T12:46:13.692Z,1516
2018-11-13T12:47:28.258Z,1516
2018-11-13T12:48:43.529Z,1516
2018-11-13T12:49:58.420Z,1516
2018-11-13T12:51:12.943Z,1520
2018-11-13T12:52:27.295Z,1536
2018-11-13T12:53:41.052Z,1424
2018-11-13T12:54:55.433Z,1872
2018-11-13T12:56:09.950Z,1632
2018-11-13T12:57:24.669Z,1492
2018-11-13T12:58:39.316Z,2104
2018-11-13T12:59:54.226Z,1796
2018-11-13T13:01:09.136Z,1720
2018-11-13T13:02:24.988Z,1664
2018-11-13T13:03:39.891Z,1556
2018-11-13T13:04:54.529Z,1560
2018-11-13T13:06:08.632Z,1580
2018-11-13T13:07:22.975Z,1460
2018-11-13T13:08:37.931Z,1364
2018-11-13T13:09:52.670Z,1316
2018-11-13T13:11:07.576Z,1448
2018-11-13T13:12:21.435Z,1472
2018-11-13T13:13:36.037Z,1372
2018-11-13T13:14:50.496Z,1412
2018-11-13T13:16:05.478Z,1360
2018-11-13T13:17:20.222Z,1336
2018-11-13T13:18:34.954Z,1596
2018-11-13T13:19:49.657Z,1680
2018-11-13T13:21:04.905Z,1884
2018-11-13T13:22:20.421Z,1980
2018-11-13T13:23:35.959Z,1772
2018-11-13T13:24:50.319Z,1552
2018-11-13T13:26:05.955Z,1464
2018-11-13T13:27:20.394Z,1808
2018-11-13T13:28:34.852Z,1784
2018-11-13T13:29:49.761Z,1836
2018-11-13T13:31:04.403Z,1472
2018-11-13T13:32:18.569Z,1364
2018-11-13T13:33:33.513Z,1280
2018-11-13T13:34:48.988Z,1276
2018-11-13T13:36:03.648Z,1244
2018-11-13T13:37:18.271Z,1288
2018-11-13T13:38:33.287Z,1300
2018-11-13T13:39:47.776Z,1268
2018-11-13T13:41:02.431Z,1444
2018-11-13T13:42:16.518Z,1248
2018-11-13T13:43:31.706Z,1276
2018-11-13T13:44:46.735Z,1236
2018-11-13T13:46:01.628Z,1396
2018-11-13T13:47:15.994Z,1232
2018-11-13T13:48:30.402Z,1320
2018-11-13T13:49:45.049Z,1292
2018-11-13T13:50:59.936Z,1184
2018-11-13T13:52:14.421Z,1192
2018-11-13T13:53:29.351Z,1112
2018-11-13T13:54:43.784Z,1196
2018-11-13T13:55:58.405Z,1488
2018-11-13T13:57:13.094Z,1516
2018-11-13T13:58:27.392Z,1376
2018-11-13T13:59:42.748Z,2284
2018-11-13T14:00:57.894Z,1544
2018-11-13T14:02:13.172Z,1496
2018-11-13T14:03:27.808Z,1456
2018-11-13T14:04:44.147Z,1224
2018-11-13T14:05:59.205Z,1112
2018-11-13T14:07:14.443Z,1080
2018-11-13T14:08:29.194Z,1068
2018-11-13T14:09:43.904Z,1088
2018-11-13T14:10:58.274Z,1152
2018-11-13T14:12:12.681Z,1192
2018-11-13T14:13:27.486Z,1208
2018-11-13T14:14:42.300Z,1268
2018-11-13T14:15:57.138Z,1288
2018-11-13T14:17:16.230Z,1280
2018-11-13T14:18:30.897Z,1236
2018-11-13T14:19:45.516Z,1236
2018-11-13T14:21:00.075Z,1216
2018-11-13T14:22:15.016Z,1172
2018-11-13T14:23:28.589Z,1148
2018-11-13T14:24:43.766Z,1132
2018-11-13T14:25:58.384Z,1120
2018-11-13T14:27:12.638Z,1104
2018-11-13T14:28:27.595Z,1092
2018-11-13T14:29:42.098Z,1088
2018-11-13T14:30:57.779Z,1076
2018-11-13T14:32:13.194Z,1064
2018-11-13T14:33:27.552Z,1052
2018-11-13T14:34:41.649Z,1040
2018-11-13T14:36:09.017Z,1028
2018-11-13T14:37:24.555Z,936
2018-11-13T14:38:39.214Z,928
2018-11-13T14:39:53.790Z,920
2018-11-13T14:41:07.904Z,964
2018-11-13T14:42:22.876Z,900
2018-11-13T14:43:37.762Z,884
2018-11-13T14:44:52.703Z,880
2018-11-13T14:46:06.920Z,924
2018-11-13T14:47:22.857Z,916
2018-11-13T14:48:37.975Z,900
2018-11-13T14:49:53.162Z,880
2018-11-13T14:51:07.786Z,832
2018-11-13T14:52:22.823Z,832
2018-11-13T14:53:37.146Z,812
2018-11-13T14:54:51.844Z,780
2018-11-13T14:56:06.471Z,756
2018-11-13T14:57:21.108Z,736
2018-11-13T14:58:35.479Z,724
2018-11-13T14:59:50.697Z,704
2018-11-13T15:01:05.538Z,692
2018-11-13T15:02:20.502Z,692
2018-11-13T15:03:35.580Z,680
2018-11-13T15:04:50.296Z,664
2018-11-13T15:06:04.419Z,668
2018-11-13T15:07:18.954Z,660
2018-11-13T15:08:34.595Z,624
2018-11-13T15:09:49.704Z,600
2018-11-13T15:11:03.793Z,580
2018-11-13T15:12:18.693Z,572
2018-11-13T15:13:33.074Z,568
2018-11-13T15:14:47.962Z,536
2018-11-13T15:16:02.322Z,508
2018-11-13T15:17:16.677Z,492
2018-11-13T15:18:31.029Z,476
2018-11-13T15:19:45.432Z,456
2018-11-13T15:21:00.222Z,436
2018-11-13T15:22:15.105Z,420
2018-11-13T15:23:29.870Z,408
2018-11-13T15:24:44.677Z,420
2018-11-13T15:25:58.991Z,376
2018-11-13T15:27:14.185Z,336
2018-11-13T15:28:29.298Z,316
2018-11-13T15:29:44.185Z,308
2018-11-13T15:30:59.338Z,260
2018-11-13T15:32:14.409Z,228
2018-11-13T15:33:29.384Z,208
2018-11-13T15:34:43.753Z,184
2018-11-13T15:35:58.899Z,164
2018-11-13T15:37:13.491Z,152
2018-11-13T15:38:27.846Z,136
2018-11-13T15:39:43.720Z,120
2018-11-13T15:40:58.680Z,104
2018-11-13T15:42:13.784Z,96
2018-11-13T15:43:28.643Z,88
2018-11-13T15:44:43.581Z,76
2018-11-13T15:45:58.732Z,76
2018-11-13T15:47:13.637Z,72
2018-11-13T15:48:27.703Z,64
2018-11-13T15:49:41.585Z,56
2018-11-13T15:50:55.951Z,48
2018-11-13T15:52:11.297Z,40
2018-11-13T15:53:26.723Z,36
2018-11-13T15:54:41.712Z,28
2018-11-13T15:55:55.781Z,24
2018-11-13T15:57:10.403Z,20
2018-11-13T15:58:25.937Z,16
2018-11-13T15:59:40.298Z,8
2018-11-13T16:00:54.535Z,8
2018-11-13T16:02:09.192Z,4
2018-11-13T16:03:24.376Z,4
2018-11-13T16:04:40.011Z,4
2018-11-13T16:05:54.137Z,4
2018-11-13T16:07:08.794Z,4
2018-11-13T16:08:23.945Z,4
2018-11-13T16:09:38.835Z,0
2018-11-13T16:10:54.669Z,0
2018-11-13T16:12:09.030Z,4
2018-11-13T16:13:23.642Z,0
2018-11-13T16:14:38.222Z,0
2018-11-13T16:15:53.110Z,0
2018-11-13T16:17:07.851Z,0
2018-11-13T16:18:22.256Z,0
2018-11-13T16:19:37.633Z,0
2018-11-13T16:20:52.567Z,0
2018-11-13T16:22:07.397Z,0
2018-11-13T16:23:22.600Z,0
2018-11-13T16:24:37.873Z,0
2018-11-13T16:25:52.569Z,0
2018-11-13T16:27:07.454Z,0
2018-11-13T16:28:22.595Z,0
2018-11-13T16:29:37.640Z,0
2018-11-13T16:30:54.997Z,0
2018-11-13T16:32:08.699Z,0
2018-11-13T16:33:23.033Z,0
2018-11-13T16:34:37.429Z,0
2018-11-13T16:35:52.064Z,0
2018-11-13T16:37:06.878Z,0
2018-11-13T16:38:22.262Z,0
2018-11-13T16:39:38.079Z,0
2018-11-13T16:40:53.475Z,0
2018-11-13T16:42:08.972Z,0
2018-11-13T16:43:23.469Z,0
2018-11-13T16:44:37.836Z,0
2018-11-13T16:45:52.245Z,0
2018-11-13T16:47:07.178Z,0
2018-11-13T16:48:22.620Z,0
2018-11-13T16:49:37.225Z,0
2018-11-13T16:50:52.609Z,0
2018-11-13T16:52:07.274Z,0
2018-11-13T16:53:22.167Z,0
2018-11-13T16:54:36.669Z,0
2018-11-13T16:55:51.252Z,0
2018-11-13T16:57:05.208Z,0
2018-11-13T16:58:19.837Z,0
2018-11-13T16:59:34.101Z,0
2018-11-13T17:00:49.805Z,0
2018-11-13T17:02:04.596Z,0
2018-11-13T17:03:19.614Z,0
2018-11-13T17:04:33.759Z,0
2018-11-13T17:05:48.474Z,0
2018-11-13T17:07:03.721Z,0
2018-11-13T17:08:19.222Z,0
2018-11-13T17:09:34.281Z,0
2018-11-13T17:10:49.493Z,0
2018-11-13T17:12:04.261Z,0
2018-11-13T17:13:19.226Z,0
2018-11-13T17:14:34.835Z,0
2018-11-13T17:15:50.032Z,0
2018-11-13T17:17:05.022Z,0
2018-11-13T17:18:20.817Z,0
2018-11-13T17:19:36.994Z,0
2018-11-13T17:20:51.020Z,0
2018-11-13T17:22:05.655Z,0
2018-11-13T17:23:20.430Z,0
2018-11-13T17:24:34.848Z,0
2018-11-13T17:25:49.365Z,0
2018-11-13T17:27:04.039Z,0
2018-11-13T17:28:18.438Z,0
2018-11-13T17:29:33.354Z,0
2018-11-13T17:30:48.254Z,0
2018-11-13T17:32:04.153Z,0
2018-11-13T17:33:18.545Z,0
2018-11-13T17:34:32.653Z,0
2018-11-13T17:35:47.623Z,0
2018-11-13T17:37:02.523Z,0
2018-11-13T17:38:17.836Z,0